Time;durP1;ratioP1;P1;durP2;ratioP2;P2;SDS_P1;SDS_P2;PMS_P1;PMS_P2;Temp;Humidity;BMP_temperature;BMP_pressure;BME280_temperature;BME280_humidity;BME280_pressure;Samples;Min_cycle;Max_cycle;Signal;HPM_P1;HPM_P2
2021/05/09 00:01:25;;;;;;;7.57;6.00;;;8.40;95.50;;;;;;5070150;28;20203;-61
2021/05/09 00:03:55;;;;;;;9.18;6.93;;;8.40;95.40;;;;;;5074228;28;20241;-61
2021/05/09 00:06:23;;;;;;;8.00;5.57;;;8.40;95.80;;;;;;5074745;28;20207;-62
2021/05/09 00:08:50;;;;;;;12.82;6.45;;;8.50;95.80;;;;;;5072322;28;20218;-62
2021/05/09 00:11:18;;;;;;;9.25;5.82;;;8.50;95.80;;;;;;5079103;28;20210;-61
2021/05/09 00:13:45;;;;;;;7.43;6.05;;;8.40;96.20;;;;;;5084734;28;20201;-62
2021/05/09 00:16:12;;;;;;;6.03;5.22;;;8.30;96.30;;;;;;5077286;28;20235;-63
2021/05/09 00:18:38;;;;;;;6.97;6.28;;;8.20;96.60;;;;;;5075167;28;20294;-62
2021/05/09 00:21:05;;;;;;;7.68;5.85;;;8.10;97.00;;;;;;5077017;28;20397;-62
2021/05/09 00:23:32;;;;;;;5.97;5.38;;;7.90;97.30;;;;;;5074844;28;20203;-61
2021/05/09 00:25:59;;;;;;;6.35;5.22;;;7.90;97.70;;;;;;5079965;28;20517;-62
2021/05/09 00:28:26;;;;;;;7.70;6.72;;;7.80;97.70;;;;;;5073672;28;20214;-62
2021/05/09 00:30:52;;;;;;;7.13;6.53;;;7.80;97.90;;;;;;5082793;28;20202;-62
2021/05/09 00:33:19;;;;;;;7.70;5.43;;;7.70;98.10;;;;;;5082202;28;20200;-62
2021/05/09 00:35:46;;;;;;;6.57;5.65;;;7.70;98.30;;;;;;5079427;28;20223;-61
2021/05/09 00:38:13;;;;;;;11.77;7.30;;;7.70;98.30;;;;;;5068764;28;20211;-61
2021/05/09 00:40:40;;;;;;;8.38;7.18;;;7.70;98.50;;;;;;5066935;28;20502;-61
2021/05/09 00:43:06;;;;;;;10.98;6.13;;;7.60;98.60;;;;;;5078529;28;20520;-61
2021/05/09 00:45:38;;;;;;;7.20;6.50;;;7.60;98.90;;;;;;5072572;28;20202;-61
2021/05/09 00:48:06;;;;;;;11.15;6.82;;;7.50;99.00;;;;;;5069064;28;20210;-62
2021/05/09 00:50:33;;;;;;;10.30;5.55;;;7.50;98.70;;;;;;5076639;28;20203;-62
2021/05/09 00:53:00;;;;;;;7.22;6.55;;;7.50;98.90;;;;;;5075964;28;20215;-62
2021/05/09 00:55:29;;;;;;;6.68;5.68;;;7.40;99.00;;;;;;5083095;28;20230;-61
2021/05/09 00:57:57;;;;;;;8.43;6.78;;;7.40;99.10;;;;;;5073044;28;20420;-63
2021/05/09 01:00:25;;;;;;;8.32;6.88;;;7.30;99.40;;;;;;5075686;28;20523;-62
2021/05/09 01:02:51;;;;;;;9.68;6.53;;;7.20;99.60;;;;;;5076071;28;20249;-61
2021/05/09 01:05:18;;;;;;;10.23;6.82;;;7.20;99.50;;;;;;5074073;28;20219;-61
2021/05/09 01:07:44;;;;;;;8.02;6.45;;;7.20;99.50;;;;;;5074305;28;20256;-61
2021/05/09 01:10:13;;;;;;;11.02;7.75;;;7.20;99.50;;;;;;5068959;28;20207;-61
2021/05/09 01:12:41;;;;;;;12.30;6.38;;;7.20;99.60;;;;;;5074009;28;20301;-61
2021/05/09 01:15:09;;;;;;;8.70;6.18;;;7.00;99.90;;;;;;5070968;28;20651;-61
2021/05/09 01:17:35;;;;;;;7.03;6.32;;;7.00;99.80;;;;;;5070874;28;20214;-61
2021/05/09 01:20:35;;;;;;;9.48;5.72;;;7.00;99.60;;;;;;5074493;28;20207;-61
2021/05/09 01:23:03;;;;;;;6.43;4.70;;;7.00;99.60;;;;;;5073705;28;20489;-61
2021/05/09 01:25:30;;;;;;;10.38;5.57;;;7.00;99.40;;;;;;5073830;28;20390;-61
2021/05/09 01:27:57;;;;;;;7.75;5.60;;;7.00;99.50;;;;;;5077084;28;20203;-63
2021/05/09 01:30:24;;;;;;;5.60;4.80;;;7.00;99.60;;;;;;5080269;28;20211;-61
2021/05/09 01:32:51;;;;;;;9.93;6.55;;;7.00;99.50;;;;;;5068104;28;20230;-61
2021/05/09 01:35:18;;;;;;;9.98;5.80;;;7.00;99.50;;;;;;5074909;28;20254;-62
2021/05/09 01:37:44;;;;;;;7.47;6.45;;;7.00;99.30;;;;;;5073766;28;20208;-62
2021/05/09 01:40:12;;;;;;;5.35;4.95;;;6.90;99.30;;;;;;5072847;28;20217;-61
2021/05/09 01:42:40;;;;;;;5.90;4.35;;;6.90;99.60;;;;;;5067223;28;20217;-61
2021/05/09 01:45:09;;;;;;;9.60;6.50;;;6.90;99.60;;;;;;5074016;28;20246;-61
2021/05/09 01:47:38;;;;;;;6.75;5.65;;;6.80;99.80;;;;;;5074230;28;20203;-61
2021/05/09 01:50:08;;;;;;;5.30;4.90;;;6.80;99.70;;;;;;5068667;28;20211;-62
2021/05/09 01:52:35;;;;;;;8.10;6.38;;;6.80;99.90;;;;;;5079305;28;20225;-62
2021/05/09 01:55:07;;;;;;;7.60;6.65;;;6.60;99.90;;;;;;5077722;28;20547;-61
2021/05/09 01:57:34;;;;;;;9.07;6.10;;;6.50;99.90;;;;;;5077096;28;20194;-62
2021/05/09 02:00:01;;;;;;;7.70;5.78;;;6.50;99.90;;;;;;5071098;28;20310;-61
2021/05/09 02:02:27;;;;;;;8.77;5.63;;;6.50;99.90;;;;;;5077090;28;20227;-61
2021/05/09 02:04:55;;;;;;;6.85;5.88;;;6.50;99.90;;;;;;5074530;28;20238;-61
2021/05/09 02:07:21;;;;;;;6.65;4.78;;;6.50;99.90;;;;;;5073579;28;20211;-62
2021/05/09 02:09:48;;;;;;;9.20;5.95;;;6.50;99.90;;;;;;5074931;28;20198;-61
2021/05/09 02:12:15;;;;;;;6.00;5.50;;;6.90;99.90;;;;;;5078861;28;20475;-62
2021/05/09 02:14:41;;;;;;;6.85;6.18;;;6.40;99.90;;;;;;5075354;28;20226;-62
2021/05/09 02:17:08;;;;;;;6.45;5.53;;;6.40;99.90;;;;;;5070809;28;20788;-62
2021/05/09 02:19:35;;;;;;;6.47;4.55;;;6.40;99.90;;;;;;5075953;28;20398;-62
2021/05/09 02:22:02;;;;;;;7.18;5.75;;;6.60;99.90;;;;;;5071090;28;20257;-62
2021/05/09 02:24:28;;;;;;;6.18;5.57;;;6.30;99.90;;;;;;5067070;28;20211;-62
2021/05/09 02:26:55;;;;;;;8.02;6.60;;;6.60;99.90;;;;;;5072920;28;20209;-63
2021/05/09 02:29:21;;;;;;;5.72;5.22;;;6.20;99.90;;;;;;5078810;28;20233;-61
2021/05/09 02:31:48;;;;;;;8.77;5.88;;;6.10;99.90;;;;;;5074353;28;20229;-62
2021/05/09 02:34:15;;;;;;;8.73;7.28;;;6.10;99.90;;;;;;5075639;28;20566;-61
2021/05/09 02:36:44;;;;;;;11.52;5.38;;;6.30;99.90;;;;;;5077632;28;20207;-60
2021/05/09 02:39:14;;;;;;;5.90;5.50;;;6.10;99.90;;;;;;5073919;28;20256;-62
2021/05/09 02:41:41;;;;;;;14.32;8.68;;;6.10;99.90;;;;;;5070483;28;20473;-61
2021/05/09 02:44:09;;;;;;;8.10;6.35;;;6.10;99.90;;;;;;5072226;28;20207;-60
2021/05/09 02:46:35;;;;;;;8.80;5.03;;;6.10;99.90;;;;;;5075372;28;20401;-62
2021/05/09 02:49:03;;;;;;;6.85;6.20;;;6.00;99.90;;;;;;5077356;28;20247;-63
2021/05/09 02:51:30;;;;;;;4.53;4.10;;;6.30;99.90;;;;;;5068901;28;20208;-61
2021/05/09 02:53:57;;;;;;;7.00;6.30;;;6.10;99.90;;;;;;5077333;28;20226;-61
2021/05/09 02:56:23;;;;;;;6.90;4.65;;;6.00;99.90;;;;;;5066761;28;20293;-62
2021/05/09 02:58:50;;;;;;;6.65;5.97;;;6.00;99.90;;;;;;5077047;28;20211;-62
2021/05/09 03:01:16;;;;;;;6.70;5.72;;;6.00;99.90;;;;;;5074063;28;20378;-61
2021/05/09 03:03:43;;;;;;;5.95;4.95;;;6.00;99.90;;;;;;5075012;28;20293;-61
2021/05/09 03:06:10;;;;;;;6.10;5.05;;;5.90;99.90;;;;;;5076402;28;20220;-61
2021/05/09 03:08:36;;;;;;;6.88;6.03;;;6.00;99.90;;;;;;5074835;28;20713;-61
2021/05/09 03:11:03;;;;;;;9.32;5.95;;;6.40;99.90;;;;;;5077311;28;20213;-61
2021/05/09 03:13:30;;;;;;;5.90;5.07;;;6.10;99.90;;;;;;5082290;28;20248;-61
2021/05/09 03:16:00;;;;;;;6.43;4.80;;;6.10;99.90;;;;;;5072740;28;20233;-61
2021/05/09 03:18:28;;;;;;;5.60;5.20;;;6.00;99.90;;;;;;5083675;28;20244;-61
2021/05/09 03:20:56;;;;;;;7.95;5.70;;;6.20;99.90;;;;;;5071168;28;20520;-62
2021/05/09 03:23:23;;;;;;;6.80;5.22;;;6.10;99.90;;;;;;5069178;28;20207;-61
2021/05/09 03:25:49;;;;;;;6.30;5.70;;;6.00;99.90;;;;;;5076496;28;20222;-61
2021/05/09 03:28:16;;;;;;;6.03;5.38;;;6.00;99.90;;;;;;5077519;28;20206;-61
2021/05/09 03:30:43;;;;;;;9.30;4.68;;;6.00;99.90;;;;;;5067621;28;20241;-61
2021/05/09 03:33:10;;;;;;;8.18;5.10;;;6.10;99.90;;;;;;5071462;28;20233;-63
2021/05/09 03:35:36;;;;;;;11.38;5.70;;;6.20;99.90;;;;;;5078352;28;20258;-62
2021/05/09 03:38:05;;;;;;;9.05;6.20;;;6.20;99.90;;;;;;5069274;28;20218;-61
2021/05/09 03:40:32;;;;;;;6.68;5.90;;;6.30;99.90;;;;;;5067801;28;20203;-61
2021/05/09 03:42:59;;;;;;;5.15;4.50;;;6.30;99.90;;;;;;5076220;28;20436;-61
2021/05/09 03:45:26;;;;;;;6.30;5.70;;;6.30;99.90;;;;;;5077728;28;20219;-61
2021/05/09 03:47:52;;;;;;;7.55;4.50;;;6.40;99.90;;;;;;5075087;28;20214;-61
2021/05/09 03:50:19;;;;;;;5.95;5.13;;;6.50;99.90;;;;;;5073552;28;20522;-62
2021/05/09 03:52:45;;;;;;;7.25;4.72;;;6.40;99.90;;;;;;5075146;28;20214;-62
2021/05/09 03:55:12;;;;;;;6.95;5.32;;;6.50;99.90;;;;;;5075135;28;20268;-61
2021/05/09 03:57:38;;;;;;;7.78;5.75;;;6.70;99.90;;;;;;5073923;28;20231;-62
2021/05/09 04:00:05;;;;;;;4.90;4.38;;;6.80;99.90;;;;;;5075213;28;20210;-61
2021/05/09 04:02:32;;;;;;;6.63;4.68;;;6.90;99.90;;;;;;5083933;28;20525;-60
2021/05/09 04:04:59;;;;;;;4.63;4.13;;;7.00;99.90;;;;;;5076532;28;20264;-62
2021/05/09 04:07:25;;;;;;;8.95;5.75;;;7.10;99.90;;;;;;5074184;28;20543;-61
2021/05/09 04:09:52;;;;;;;5.82;4.95;;;7.20;99.90;;;;;;5074749;28;20226;-61
2021/05/09 04:12:18;;;;;;;8.63;5.00;;;7.30;99.50;;;;;;5074793;28;20241;-60
2021/05/09 04:14:45;;;;;;;5.72;5.20;;;7.50;99.60;;;;;;5072658;28;20226;-62
2021/05/09 04:17:12;;;;;;;6.95;6.30;;;7.60;99.10;;;;;;5070352;28;20211;-62
2021/05/09 04:19:38;;;;;;;6.93;5.60;;;7.80;98.90;;;;;;5070095;28;20516;-61
2021/05/09 04:22:06;;;;;;;6.43;4.60;;;8.10;98.60;;;;;;5070091;28;20221;-67
2021/05/09 04:24:32;;;;;;;7.03;5.03;;;8.10;98.40;;;;;;5073903;28;20219;-61
2021/05/09 04:26:59;;;;;;;5.75;5.15;;;8.10;98.20;;;;;;5072578;28;20208;-61
2021/05/09 04:29:26;;;;;;;9.27;5.72;;;8.20;98.40;;;;;;5073774;28;20320;-61
2021/05/09 04:31:52;;;;;;;6.38;5.13;;;8.20;98.10;;;;;;5076438;28;20203;-62
2021/05/09 04:34:19;;;;;;;10.65;6.20;;;8.20;98.40;;;;;;5073504;28;20210;-61
2021/05/09 04:36:45;;;;;;;5.78;5.00;;;8.30;98.40;;;;;;5072516;28;20211;-61
2021/05/09 04:39:12;;;;;;;6.20;4.70;;;8.50;98.10;;;;;;5072550;28;20203;-61
2021/05/09 04:41:39;;;;;;;5.32;4.65;;;8.70;97.80;;;;;;5074955;28;20207;-61
2021/05/09 04:44:05;;;;;;;7.68;6.13;;;8.90;97.50;;;;;;5075932;28;20204;-61
2021/05/09 04:46:32;;;;;;;5.40;4.93;;;9.00;97.30;;;;;;5074143;28;20216;-61
2021/05/09 04:48:59;;;;;;;7.93;5.97;;;9.30;96.90;;;;;;5072609;28;20214;-62
2021/05/09 04:51:25;;;;;;;5.75;5.32;;;9.50;96.80;;;;;;5067079;28;20226;-62
2021/05/09 04:53:58;;;;;;;7.10;5.45;;;9.80;96.80;;;;;;5074145;28;20208;-62
2021/05/09 04:56:24;;;;;;;7.35;4.72;;;9.70;96.40;;;;;;5078162;28;20229;-61
2021/05/09 04:58:55;;;;;;;8.13;6.00;;;9.70;96.40;;;;;;5076041;28;20461;-62
2021/05/09 05:01:22;;;;;;;6.57;5.28;;;9.70;96.00;;;;;;5074923;28;20433;-62
2021/05/09 05:03:48;;;;;;;6.25;5.40;;;9.80;96.20;;;;;;5079217;28;20321;-63
2021/05/09 05:06:15;;;;;;;5.63;4.93;;;9.70;95.90;;;;;;5078463;28;20213;-62
2021/05/09 05:08:42;;;;;;;5.00;4.28;;;9.70;96.10;;;;;;5077671;28;20208;-61
2021/05/09 05:11:08;;;;;;;8.85;5.13;;;9.80;95.90;;;;;;5080371;28;20287;-62
2021/05/09 05:13:36;;;;;;;6.53;5.53;;;9.80;96.20;;;;;;5079279;28;20307;-63
2021/05/09 05:16:07;;;;;;;6.10;5.45;;;9.90;96.00;;;;;;5078702;28;20257;-63
2021/05/09 05:18:36;;;;;;;5.55;4.93;;;10.10;95.80;;;;;;5073655;28;20205;-62
2021/05/09 05:21:05;;;;;;;8.85;5.60;;;10.10;96.10;;;;;;5076446;28;20208;-62
2021/05/09 05:23:33;;;;;;;11.13;5.00;;;10.20;95.70;;;;;;5071070;28;20266;-62
2021/05/09 05:25:59;;;;;;;5.10;4.50;;;10.50;95.50;;;;;;5070525;28;20207;-62
2021/05/09 05:28:26;;;;;;;4.82;4.40;;;10.80;95.20;;;;;;5070853;28;20210;-62
2021/05/09 05:30:53;;;;;;;7.00;5.10;;;11.00;94.80;;;;;;5075013;28;20220;-62
2021/05/09 05:33:27;;;;;;;5.90;5.03;;;11.10;94.40;;;;;;5072400;28;20228;-62
2021/05/09 05:35:54;;;;;;;5.97;4.60;;;11.20;94.50;;;;;;5063215;28;20234;-63
2021/05/09 05:38:21;;;;;;;7.30;5.82;;;11.10;94.40;;;;;;5072447;28;20208;-62
2021/05/09 05:40:54;;;;;;;10.35;5.70;;;11.30;94.80;;;;;;5073030;28;20218;-62
2021/05/09 05:43:23;;;;;;;4.85;4.35;;;11.50;94.10;;;;;;5076319;28;20216;-62
2021/05/09 05:45:53;;;;;;;6.50;5.70;;;11.70;93.80;;;;;;5068635;28;20215;-62
2021/05/09 05:48:21;;;;;;;5.28;4.85;;;11.90;93.50;;;;;;5071940;28;20210;-62
2021/05/09 05:50:49;;;;;;;4.75;4.22;;;12.10;93.20;;;;;;5072772;28;20206;-61
2021/05/09 05:53:19;;;;;;;6.05;5.03;;;12.30;92.70;;;;;;5075472;28;20250;-62
2021/05/09 05:55:47;;;;;;;6.07;4.70;;;12.50;92.10;;;;;;5080195;28;20223;-62
2021/05/09 05:58:14;;;;;;;5.85;5.35;;;12.90;92.00;;;;;;5080373;28;20248;-63
2021/05/09 06:00:41;;;;;;;5.80;5.13;;;12.90;91.30;;;;;;5078326;28;20210;-63
2021/05/09 06:03:08;;;;;;;5.45;5.00;;;13.10;91.00;;;;;;5072881;28;20245;-62
2021/05/09 06:05:35;;;;;;;6.32;5.53;;;13.30;90.80;;;;;;5073505;28;20241;-64
2021/05/09 06:08:01;;;;;;;7.63;5.93;;;13.60;90.30;;;;;;5070698;28;20206;-63
2021/05/09 06:10:28;;;;;;;6.15;5.72;;;13.90;89.90;;;;;;5071394;28;20270;-62
2021/05/09 06:12:56;;;;;;;6.70;6.05;;;14.30;88.60;;;;;;5075218;28;20245;-64
2021/05/09 06:15:23;;;;;;;7.75;7.05;;;15.20;85.60;;;;;;5073444;28;20230;-63
2021/05/09 06:17:50;;;;;;;7.00;6.40;;;15.60;83.90;;;;;;5078290;28;20205;-63
2021/05/09 06:20:17;;;;;;;8.10;7.40;;;16.40;81.80;;;;;;5076287;28;20413;-62
2021/05/09 06:22:44;;;;;;;6.97;6.40;;;16.80;79.70;;;;;;5075473;28;20452;-62
2021/05/09 06:25:11;;;;;;;7.37;6.67;;;17.30;76.60;;;;;;5074930;28;20430;-63
2021/05/09 06:27:38;;;;;;;12.23;9.83;;;18.30;74.80;;;;;;5074760;28;20443;-63
2021/05/09 06:30:05;;;;;;;8.93;8.03;;;19.80;64.70;;;;;;5076205;28;20442;-64
2021/05/09 06:32:32;;;;;;;8.03;7.53;;;20.80;60.10;;;;;;5072217;28;20633;-63
2021/05/09 06:35:00;;;;;;;7.00;6.50;;;21.40;56.40;;;;;;5076880;28;20833;-64
2021/05/09 06:37:27;;;;;;;8.00;7.33;;;21.10;54.70;;;;;;5077802;28;20448;-64
2021/05/09 06:39:53;;;;;;;8.20;7.50;;;21.90;54.20;;;;;;5076528;28;20453;-63
2021/05/09 06:42:21;;;;;;;7.40;6.90;;;21.70;52.50;;;;;;5072489;28;20453;-62
2021/05/09 06:44:55;;;;;;;8.00;7.40;;;21.90;52.00;;;;;;5076719;28;20727;-63
2021/05/09 06:47:21;;;;;;;7.77;7.23;;;22.80;50.60;;;;;;5074756;28;20448;-63
2021/05/09 06:49:48;;;;;;;7.60;7.10;;;23.50;49.20;;;;;;5073388;28;20437;-65
2021/05/09 06:52:15;;;;;;;7.03;6.63;;;23.40;48.10;;;;;;5074160;28;20451;-62
2021/05/09 06:54:42;;;;;;;8.17;7.57;;;23.40;48.40;;;;;;5075119;28;20419;-63
2021/05/09 06:57:09;;;;;;;8.33;7.80;;;24.40;46.10;;;;;;5088178;28;20435;-64
2021/05/09 06:59:35;;;;;;;7.43;6.97;;;24.50;45.80;;;;;;5074229;28;20440;-63
2021/05/09 07:02:02;;;;;;;8.50;8.00;;;24.20;45.70;;;;;;5081361;28;20475;-63
2021/05/09 07:04:29;;;;;;;7.87;7.47;;;24.80;45.70;;;;;;5077079;28;20650;-63
2021/05/09 07:06:55;;;;;;;7.27;6.80;;;25.00;44.30;;;;;;5075212;28;20436;-64
2021/05/09 07:09:22;;;;;;;8.43;7.53;;;26.10;43.70;;;;;;5078820;28;20463;-64
2021/05/09 07:11:49;;;;;;;7.30;6.80;;;25.80;42.60;;;;;;5078224;28;20472;-62
2021/05/09 07:14:15;;;;;;;7.73;7.30;;;26.30;42.00;;;;;;5078819;28;20519;-63
2021/05/09 07:16:42;;;;;;;7.70;7.30;;;26.40;41.80;;;;;;5065722;28;20547;-64
2021/05/09 07:19:09;;;;;;;8.03;7.50;;;28.10;39.80;;;;;;5075251;28;20440;-64
2021/05/09 07:21:41;;;;;;;8.70;8.00;;;26.50;41.30;;;;;;5075059;28;20440;-64
2021/05/09 07:24:08;;;;;;;8.57;7.10;;;26.10;42.00;;;;;;5072256;28;20566;-64
2021/05/09 07:26:35;;;;;;;8.33;7.63;;;26.40;42.40;;;;;;5078431;28;20633;-63
2021/05/09 07:29:02;;;;;;;8.23;7.73;;;26.30;41.50;;;;;;5071026;28;20750;-63
2021/05/09 07:31:31;;;;;;;7.83;7.33;;;24.80;43.90;;;;;;5081963;28;20454;-64
2021/05/09 07:34:00;;;;;;;7.50;7.10;;;25.10;44.50;;;;;;5071827;28;20450;-63
2021/05/09 07:36:27;;;;;;;8.00;7.50;;;25.70;42.70;;;;;;5076266;28;20543;-64
2021/05/09 07:38:53;;;;;;;8.03;7.53;;;25.60;43.20;;;;;;5070252;28;20660;-65
2021/05/09 07:41:20;;;;;;;7.97;7.43;;;26.30;42.50;;;;;;5080679;28;20443;-65
2021/05/09 07:43:47;;;;;;;7.50;7.10;;;26.20;42.20;;;;;;5074697;28;20543;-65
2021/05/09 07:46:14;;;;;;;7.17;6.77;;;27.60;40.20;;;;;;5071604;28;20453;-64
2021/05/09 07:48:41;;;;;;;7.77;7.27;;;28.10;39.60;;;;;;5072134;28;20449;-64
2021/05/09 07:51:08;;;;;;;7.40;7.00;;;29.20;38.40;;;;;;5071179;28;20469;-65
2021/05/09 07:53:35;;;;;;;8.40;7.90;;;29.10;38.50;;;;;;5077272;28;20485;-64
2021/05/09 07:56:02;;;;;;;10.23;9.50;;;28.20;38.50;;;;;;5066510;28;20543;-64
2021/05/09 07:58:28;;;;;;;8.50;8.00;;;27.70;40.90;;;;;;5075094;28;20855;-64
2021/05/09 08:00:55;;;;;;;7.20;6.80;;;28.40;39.30;;;;;;5078512;28;20820;-64
2021/05/09 08:03:22;;;;;;;8.60;8.17;;;27.60;40.00;;;;;;5073818;28;20477;-65
2021/05/09 08:05:48;;;;;;;8.33;7.87;;;28.10;39.40;;;;;;5073541;28;20448;-65
2021/05/09 08:08:15;;;;;;;8.83;8.40;;;29.00;38.40;;;;;;5076624;28;20467;-64
2021/05/09 08:10:42;;;;;;;8.30;7.80;;;28.50;38.70;;;;;;5082397;28;20440;-65
2021/05/09 08:13:11;;;;;;;7.90;7.37;;;28.90;37.90;;;;;;5079618;28;20475;-64
2021/05/09 08:15:39;;;;;;;7.30;6.90;;;28.70;37.20;;;;;;5076833;28;20479;-65
2021/05/09 08:18:06;;;;;;;7.33;7.03;;;30.40;36.10;;;;;;5062618;28;20447;-65
2021/05/09 08:20:33;;;;;;;7.23;6.83;;;31.40;35.20;;;;;;5074234;28;20443;-65
2021/05/09 08:23:00;;;;;;;8.27;7.87;;;32.40;32.70;;;;;;5072970;28;20766;-65
2021/05/09 08:25:26;;;;;;;8.70;8.20;;;33.40;32.10;;;;;;5069382;28;20446;-65
2021/05/09 08:27:53;;;;;;;8.67;8.27;;;31.60;33.70;;;;;;5068372;28;20745;-67
2021/05/09 08:30:22;;;;;;;8.60;8.20;;;31.70;33.20;;;;;;5078621;28;20450;-67
2021/05/09 08:32:50;;;;;;;7.97;7.57;;;31.80;33.10;;;;;;5072740;28;20674;-67
2021/05/09 08:35:18;;;;;;;6.93;6.60;;;30.50;34.50;;;;;;5073079;28;20483;-67
2021/05/09 08:37:45;;;;;;;8.57;8.10;;;31.10;33.70;;;;;;5077178;28;20449;-68
2021/05/09 08:40:15;;;;;;;8.40;8.00;;;32.60;31.80;;;;;;5081011;28;20535;-68
2021/05/09 08:42:43;;;;;;;7.73;7.43;;;33.10;30.60;;;;;;5078371;28;21099;-69
2021/05/09 08:45:10;;;;;;;8.37;8.03;;;33.50;29.50;;;;;;5075166;28;20447;-66
2021/05/09 08:47:41;;;;;;;7.10;6.80;;;35.10;29.20;;;;;;5075792;28;20835;-68
2021/05/09 08:50:10;;;;;;;7.73;7.43;;;33.80;28.60;;;;;;5074953;28;20631;-67
2021/05/09 08:52:39;;;;;;;7.23;6.93;;;34.20;28.60;;;;;;5076430;28;20434;-67
2021/05/09 08:55:08;;;;;;;6.87;6.57;;;34.70;27.30;;;;;;5075153;28;20482;-67
2021/05/09 08:57:35;;;;;;;7.33;7.13;;;35.00;27.10;;;;;;5076761;28;20504;-67
2021/05/09 09:00:04;;;;;;;7.87;7.50;;;35.70;26.40;;;;;;5078420;28;20458;-67
2021/05/09 09:02:46;;;;;;;8.10;7.70;;;35.40;26.10;;;;;;5078586;28;20540;-66
2021/05/09 09:05:14;;;;;;;7.60;7.20;;;36.40;25.50;;;;;;5077923;28;20448;-66
2021/05/09 09:07:47;;;;;;;6.63;6.43;;;34.30;26.40;;;;;;5078592;28;20450;-66
2021/05/09 09:10:35;;;;;;;7.40;7.10;;;33.70;27.60;;;;;;5074833;28;20506;-67
2021/05/09 09:13:23;;;;;;;7.40;7.10;;;33.40;27.30;;;;;;5073743;28;20889;-66
2021/05/09 09:15:58;;;;;;;7.10;6.90;;;34.10;26.80;;;;;;5076125;28;20482;-66
2021/05/09 09:18:25;;;;;;;7.07;6.83;;;33.90;26.20;;;;;;5075621;28;20447;-66
2021/05/09 09:20:52;;;;;;;7.07;6.87;;;32.10;28.00;;;;;;5076321;28;20435;-67
2021/05/09 09:23:19;;;;;;;7.67;7.37;;;32.40;28.80;;;;;;5076295;28;20437;-67
2021/05/09 09:25:45;;;;;;;6.77;6.47;;;33.10;26.70;;;;;;5075136;28;20463;-66
2021/05/09 09:28:12;;;;;;;6.40;6.20;;;30.30;30.00;;;;;;5075146;28;20452;-67
2021/05/09 09:30:53;;;;;;;6.53;6.30;;;28.30;33.50;;;;;;5075522;28;20624;-67
2021/05/09 09:33:21;;;;;;;6.20;6.00;;;27.00;32.40;;;;;;5079530;28;20511;-68
2021/05/09 09:35:54;;;;;;;6.47;6.17;;;26.00;35.90;;;;;;5076911;28;20448;-67
2021/05/09 09:38:31;;;;;;;6.00;5.80;;;25.20;37.80;;;;;;5077801;28;20448;-66
2021/05/09 09:41:10;;;;;;;6.07;5.60;;;24.80;39.00;;;;;;5083426;28;20445;-67
2021/05/09 09:43:38;;;;;;;5.97;5.67;;;24.30;38.80;;;;;;5073806;28;20451;-69
2021/05/09 09:46:24;;;;;;;5.90;5.60;;;23.90;39.40;;;;;;5082220;28;20459;-68
2021/05/09 09:48:50;;;;;;;6.53;6.10;;;23.50;41.40;;;;;;5075636;28;20456;-68
2021/05/09 09:51:17;;;;;;;5.50;5.30;;;23.40;42.10;;;;;;5077770;28;20436;-67
2021/05/09 09:53:44;;;;;;;5.57;5.37;;;23.30;41.60;;;;;;5075378;28;20454;-68
2021/05/09 09:56:12;;;;;;;5.23;5.03;;;23.20;41.50;;;;;;5072560;28;20462;-67
2021/05/09 09:58:48;;;;;;;5.33;5.13;;;23.10;41.40;;;;;;5078108;28;20443;-67
2021/05/09 10:01:27;;;;;;;5.43;5.23;;;23.00;41.90;;;;;;5078448;28;20746;-67
2021/05/09 10:03:57;;;;;;;5.60;5.30;;;23.00;43.80;;;;;;5074801;28;20460;-66
2021/05/09 10:06:25;;;;;;;5.87;5.67;;;23.00;43.00;;;;;;5075411;28;20452;-68
2021/05/09 10:08:52;;;;;;;5.40;5.20;;;23.00;43.20;;;;;;5076849;28;20461;-66
2021/05/09 10:11:20;;;;;;;5.63;5.43;;;22.80;42.70;;;;;;5076972;28;20440;-66
2021/05/09 10:13:49;;;;;;;5.30;5.10;;;22.60;43.90;;;;;;5086942;28;20852;-66
2021/05/09 10:16:21;;;;;;;6.43;6.13;;;22.50;43.00;;;;;;5069173;28;20480;-66
2021/05/09 10:18:53;;;;;;;5.70;5.47;;;22.60;42.80;;;;;;5079579;28;20440;-66
2021/05/09 10:21:29;;;;;;;6.00;5.60;;;22.50;44.50;;;;;;5081640;28;20452;-66
2021/05/09 10:24:17;;;;;;;5.83;5.63;;;22.50;43.40;;;;;;5070690;28;20442;-66
2021/05/09 10:26:51;;;;;;;5.47;5.27;;;22.60;42.40;;;;;;5068429;28;20423;-66
2021/05/09 10:29:48;;;;;;;5.27;5.07;;;22.40;44.20;;;;;;5070226;28;20471;-67
2021/05/09 10:32:20;;;;;;;5.60;5.30;;;22.50;43.40;;;;;;5063918;28;20762;-66
2021/05/09 10:34:57;;;;;;;5.13;4.93;;;22.60;44.10;;;;;;5071633;28;20443;-67
2021/05/09 10:37:48;;;;;;;5.20;5.00;;;22.70;44.90;;;;;;5079332;28;21032;-66
2021/05/09 10:40:40;;;;;;;7.27;6.97;;;22.90;44.10;;;;;;5075401;28;20428;-68
2021/05/09 10:43:11;;;;;;;5.10;4.90;;;23.10;43.70;;;;;;5069562;28;20450;-67
2021/05/09 10:45:40;;;;;;;5.73;5.53;;;23.00;42.70;;;;;;5075024;28;20446;-66
2021/05/09 10:48:24;;;;;;;5.30;5.10;;;22.90;43.80;;;;;;5087712;28;20427;-67
2021/05/09 10:51:22;;;;;;;5.07;4.90;;;22.90;44.20;;;;;;5064584;28;20520;-66
2021/05/09 10:53:48;;;;;;;5.83;5.30;;;22.80;43.00;;;;;;5078507;28;20428;-66
2021/05/09 10:56:15;;;;;;;4.87;4.77;;;22.90;44.10;;;;;;5079254;28;20455;-66
2021/05/09 10:58:48;;;;;;;4.50;4.40;;;23.00;43.80;;;;;;5080489;28;20440;-67
2021/05/09 11:01:19;;;;;;;4.20;4.10;;;23.00;44.00;;;;;;5079330;28;20446;-66
2021/05/09 11:03:46;;;;;;;4.77;4.57;;;22.90;44.20;;;;;;5073605;28;20476;-66
2021/05/09 11:06:26;;;;;;;5.73;5.53;;;22.90;44.60;;;;;;5078484;28;20440;-66
2021/05/09 11:08:56;;;;;;;6.83;6.40;;;22.90;43.70;;;;;;5070596;28;20454;-66
2021/05/09 11:11:45;;;;;;;8.13;7.63;;;23.00;45.40;;;;;;5068152;28;20448;-67
2021/05/09 11:14:12;;;;;;;4.93;4.73;;;23.10;44.60;;;;;;5064618;28;20448;-67
2021/05/09 11:16:57;;;;;;;7.23;6.77;;;23.10;43.40;;;;;;5064397;28;20484;-68
2021/05/09 11:19:33;;;;;;;5.80;5.60;;;23.00;44.00;;;;;;5072140;28;20839;-67
2021/05/09 11:21:59;;;;;;;5.87;5.57;;;23.00;44.50;;;;;;5073427;28;20451;-68
2021/05/09 11:24:31;;;;;;;6.67;6.27;;;23.10;44.20;;;;;;5072719;28;20466;-67
2021/05/09 11:27:04;;;;;;;7.13;6.83;;;23.10;44.40;;;;;;5068469;28;20758;-67
2021/05/09 11:29:31;;;;;;;6.70;6.30;;;23.00;44.50;;;;;;5074302;28;20440;-65
2021/05/09 11:32:13;;;;;;;5.47;5.17;;;23.00;44.10;;;;;;5071334;28;20760;-66
2021/05/09 11:34:54;;;;;;;5.00;4.80;;;23.10;43.60;;;;;;5072041;28;20451;-66
2021/05/09 11:37:23;;;;;;;6.03;5.60;;;23.00;43.60;;;;;;5064672;28;20514;-67
2021/05/09 11:39:50;;;;;;;6.13;5.77;;;23.00;45.50;;;;;;5072568;28;20448;-66
2021/05/09 11:42:18;;;;;;;5.10;4.80;;;23.10;44.10;;;;;;5068813;28;20470;-66
2021/05/09 11:44:52;;;;;;;5.97;5.60;;;23.10;42.90;;;;;;5070922;28;20444;-66
2021/05/09 11:47:24;;;;;;;6.93;6.47;;;23.00;44.60;;;;;;5071518;28;20649;-65
2021/05/09 11:49:58;;;;;;;5.00;4.80;;;22.90;44.60;;;;;;5071830;28;20454;-68
2021/05/09 11:52:35;;;;;;;4.90;4.70;;;22.90;44.30;;;;;;5062631;28;20499;-65
2021/05/09 11:55:05;;;;;;;5.00;4.80;;;22.80;45.20;;;;;;5072602;28;20592;-67
2021/05/09 11:57:33;;;;;;;5.30;5.10;;;22.80;44.00;;;;;;5075985;28;20444;-67
2021/05/09 12:00:05;;;;;;;5.10;4.90;;;22.90;44.80;;;;;;5069096;28;20407;-68
2021/05/09 12:02:40;;;;;;;5.07;4.87;;;22.90;44.30;;;;;;5073966;28;20460;-67
2021/05/09 12:05:24;;;;;;;4.70;4.60;;;23.00;44.20;;;;;;5070906;28;20441;-66
2021/05/09 12:07:56;;;;;;;5.30;5.10;;;23.00;43.20;;;;;;5073518;28;20414;-67
2021/05/09 12:10:26;;;;;;;5.50;5.20;;;23.20;44.80;;;;;;5067949;28;20432;-65
2021/05/09 12:13:07;;;;;;;4.20;4.10;;;23.40;44.50;;;;;;5075177;28;20486;-65
2021/05/09 12:15:44;;;;;;;5.80;4.93;;;23.40;44.40;;;;;;5071709;28;20446;-67
2021/05/09 12:18:13;;;;;;;4.57;4.40;;;23.50;43.60;;;;;;5075783;28;20418;-66
2021/05/09 12:20:47;;;;;;;4.67;4.50;;;23.50;43.80;;;;;;5076228;28;20508;-66
2021/05/09 12:23:16;;;;;;;5.00;4.80;;;23.30;42.70;;;;;;5073800;28;20485;-65
2021/05/09 12:25:45;;;;;;;4.70;4.50;;;23.30;43.90;;;;;;5071199;28;20415;-65
2021/05/09 12:28:16;;;;;;;4.50;4.40;;;23.30;44.30;;;;;;5073640;28;20740;-65
2021/05/09 12:30:47;;;;;;;5.00;4.80;;;23.40;44.50;;;;;;5073444;28;20453;-66
2021/05/09 12:33:34;;;;;;;4.60;4.40;;;23.40;43.50;;;;;;5069754;28;20543;-69
2021/05/09 12:36:19;;;;;;;5.07;4.87;;;23.40;43.50;;;;;;5074513;28;20513;-68
2021/05/09 12:38:45;;;;;;;4.93;4.80;;;23.50;43.30;;;;;;5072619;28;20443;-65
2021/05/09 12:41:15;;;;;;;5.20;5.00;;;23.50;44.10;;;;;;5069970;28;20907;-67
2021/05/09 12:43:55;;;;;;;4.67;4.57;;;23.50;43.60;;;;;;5072272;28;20422;-66
2021/05/09 12:46:42;;;;;;;4.50;4.40;;;23.40;44.80;;;;;;5070498;28;20454;-66
2021/05/09 12:49:19;;;;;;;4.77;4.57;;;23.40;45.70;;;;;;5072291;28;20410;-66
2021/05/09 12:51:55;;;;;;;5.47;5.27;;;23.40;45.10;;;;;;5073228;28;20425;-65
2021/05/09 12:54:43;;;;;;;5.10;4.90;;;23.40;45.90;;;;;;5070551;28;20436;-66
2021/05/09 12:57:20;;;;;;;4.90;4.70;;;23.40;44.00;;;;;;5073429;28;20600;-66
2021/05/09 13:00:08;;;;;;;5.40;5.20;;;23.50;44.00;;;;;;5074131;28;20770;-66
2021/05/09 13:02:48;;;;;;;4.90;4.70;;;23.40;44.30;;;;;;5084963;28;20632;-66